Mobert — WDH5860 — position and weather

sailwx.info

Track history (hours):
 
Tides and Currents Weather Stations Pressure Air Temp Water Temp Dewpoint Dewpoint Depression Visibility Wind Speed Wind Dir Waves Ship Positions

Mobert

Owner: Anderson, Richard J, Kirkland, WA. More information available from US FCC via Universal Licensing System and Coast Guard Vessel Documentation Center.

Last reported at 2017-Oct-15 23:05 UTC. Time now 2017-Oct-22 17:06 UTC.
Position N 32°47' W 117°19'.

Length 15 m.

Type: Sailing vessel. MMSI: 367632210.

Date/timePositionNaut miles runAvg speedWind from/ knotsBaromVisibWave heightAir tempDewpointWater temp
2017-Oct-15 23:05N 32°47' W 117°19'1 6.6
2017-Oct-15 22:56N 32°48' W 117°20'3 6.7
2017-Oct-15 22:30N 32°49' W 117°23'4 6.7
2017-Oct-15 21:57N 32°51' W 117°27'3 6.6
2017-Oct-15 21:30N 32°53' W 117°29'21 6.4
2017-Oct-15 18:11N 33°05' W 117°50'1 6.6
2017-Oct-15 18:00N 33°06' W 117°52'3 6.4
2017-Oct-15 17:30N 33°07' W 117°55'3 6.4
2017-Oct-15 17:00N 33°09' W 117°58'3 6.5
2017-Oct-15 16:30N 33°11' W 118°01'3 6.4
2017-Oct-15 16:00N 33°13' W 118°04'3 6.3
2017-Oct-15 15:30N 33°14' W 118°08'3 6.2
2017-Oct-15 15:00N 33°16' W 118°11'6 6.3
2017-Oct-15 14:00N 33°20' W 118°17'2 0.4
2017-Oct-15 08:04N 33°21' W 118°20'0 0.0
2017-Oct-15 07:46N 33°21' W 118°20'0 0.0
2017-Oct-15 07:28N 33°21' W 118°20'0 0.0
2017-Oct-15 06:58N 33°21' W 118°20'0 0.0
2017-Oct-15 05:46N 33°21' W 118°20'0 0.0
2017-Oct-15 05:16N 33°21' W 118°20'0 0.0
2017-Oct-15 04:52N 33°21' W 118°20'0 0.0
2017-Oct-15 04:28N 33°21' W 118°20'0 0.0
2017-Oct-15 03:58N 33°21' W 118°20'0 0.0
2017-Oct-15 03:28N 33°21' W 118°20'0 0.0
2017-Oct-15 02:58N 33°21' W 118°20'0 0.0
2017-Oct-15 02:28N 33°21' W 118°20'0 0.0
2017-Oct-15 01:58N 33°21' W 118°20'0 0.0
2017-Oct-15 01:28N 33°21' W 118°20'0 0.0
2017-Oct-15 00:58N 33°21' W 118°20'0 0.0
2017-Oct-14 21:58N 33°21' W 118°20'0 0.0
2017-Oct-14 21:25N 33°21' W 118°20'0 0.0
2017-Oct-14 20:58N 33°21' W 118°20'0 0.0
2017-Oct-14 20:28N 33°21' W 118°20'0 0.0
2017-Oct-14 19:58N 33°21' W 118°20'0 0.0
2017-Oct-14 19:16N 33°21' W 118°20'0 0.0
2017-Oct-14 15:04N 33°21' W 118°20'0 0.0
2017-Oct-14 14:58N 33°21' W 118°20'0 0.0
2017-Oct-14 11:34N 33°21' W 118°20'0 0.0
2017-Oct-14 11:22N 33°21' W 118°20'0 0.0
2017-Oct-14 10:58N 33°21' W 118°20'0 0.0
2017-Oct-14 10:28N 33°21' W 118°20'0 0.0
2017-Oct-14 09:58N 33°21' W 118°20'0 0.0
2017-Oct-14 08:22N 33°21' W 118°20'0 0.0
2017-Oct-14 07:07N 33°21' W 118°20'0 0.0
2017-Oct-14 05:10N 33°21' W 118°20'0 0.0
2017-Oct-14 04:52N 33°21' W 118°20'0 0.0
2017-Oct-14 04:28N 33°21' W 118°20'0 0.0
2017-Oct-14 03:52N 33°21' W 118°20'0 0.0
2017-Oct-14 03:28N 33°21' W 118°20'0 0.0
2017-Oct-13 08:58N 33°21' W 118°20'0 0.0
2017-Oct-12 01:58N 33°21' W 118°20'0 0.0
2017-Oct-12 01:28N 33°21' W 118°20'0 0.0
2017-Oct-11 23:28N 33°21' W 118°20'0 0.0
2017-Oct-11 22:22N 33°21' W 118°20'0 0.0
2017-Oct-11 20:46N 33°21' W 118°20'0 0.0
2017-Oct-10 23:59N 33°21' W 118°20'0 0.0
2017-Oct-10 23:29N 33°21' W 118°20'0 0.0
2017-Oct-10 22:47N 33°21' W 118°20'0 0.0
2017-Oct-10 22:26N 33°21' W 118°20'0 0.0
2017-Oct-10 21:44N 33°21' W 118°20'0 0.0
2017-Oct-10 19:53N 33°21' W 118°20'0 0.0
2017-Oct-10 17:53N 33°21' W 118°20'0 0.0
2017-Oct-10 17:29N 33°21' W 118°20'0 0.0
2017-Oct-10 16:59N 33°21' W 118°20'0 0.0
2017-Oct-10 16:29N 33°21' W 118°20'0 0.0
2017-Oct-10 15:17N 33°21' W 118°20'0 0.0
2017-Oct-10 14:41N 33°21' W 118°20'0 0.0
2017-Oct-10 12:14N 33°21' W 118°20'0 0.0
2017-Oct-10 11:59N 33°21' W 118°20'0 0.0
2017-Oct-10 11:29N 33°21' W 118°20'0 0.0
2017-Oct-10 10:47N 33°21' W 118°20'0 0.0
2017-Oct-10 10:29N 33°21' W 118°20'0 0.0
2017-Oct-10 09:59N 33°21' W 118°20'0 0.0
2017-Oct-10 09:23N 33°21' W 118°20'0 0.0
2017-Oct-10 08:59N 33°21' W 118°20'0 0.0
2017-Oct-10 08:29N 33°21' W 118°20'0 0.0
2017-Oct-10 07:41N 33°21' W 118°20'0 0.0
2017-Oct-10 07:23N 33°21' W 118°20'0 0.0
2017-Oct-10 06:02N 33°21' W 118°20'0 0.0
2017-Oct-10 05:59N 33°21' W 118°20'0 0.0
2017-Oct-10 05:29N 33°21' W 118°20'0 0.0
2017-Oct-10 04:56N 33°21' W 118°20'0 0.0
2017-Oct-10 04:29N 33°21' W 118°20'0 0.0
2017-Oct-10 02:29N 33°21' W 118°20'0 0.0
2017-Oct-10 01:59N 33°21' W 118°20'0 0.0
2017-Oct-10 01:26N 33°21' W 118°20'0 0.0
2017-Oct-10 00:59N 33°21' W 118°20'0 0.0
2017-Oct-10 00:29N 33°21' W 118°20'0 0.0
2017-Oct-09 23:59N 33°21' W 118°20'0 0.0
2017-Oct-09 23:29N 33°21' W 118°20'0 0.0
2017-Oct-09 22:59N 33°21' W 118°20'0 0.0
2017-Oct-09 22:29N 33°21' W 118°20'0 0.0
2017-Oct-09 21:56N 33°21' W 118°20'0 0.0
2017-Oct-09 21:29N 33°21' W 118°20'0 0.0
2017-Oct-09 20:59N 33°21' W 118°20'0 0.0
2017-Oct-09 20:29N 33°21' W 118°20'0 0.0
2017-Oct-09 19:59N 33°21' W 118°20'0 0.0
2017-Oct-09 19:27N 33°21' W 118°20'20 0.9
2017-Oct-08 22:15N 33°31' W 118°40'2 6.2
2017-Oct-08 21:58N 33°32' W 118°41'3 5.7
2017-Oct-08 21:28N 33°34' W 118°44'3 5.9
2017-Oct-08 21:00N 33°35' W 118°47'7 6.4
2017-Oct-08 19:53N 33°38' W 118°54'2 5.8
2017-Oct-08 19:30N 33°40' W 118°57'3 5.6
2017-Oct-08 19:00N 33°41' W 118°60'3 5.2
2017-Oct-08 18:31N 33°42' W 119°03'3 5.8
2017-Oct-08 18:01N 33°43' W 119°06'3 6.6
2017-Oct-08 17:31N 33°44' W 119°09'4 6.5
2017-Oct-08 16:58N 33°46' W 119°13'3 6.3
2017-Oct-08 16:29N 33°47' W 119°17'3 6.0
2017-Oct-08 16:00N 33°49' W 119°20'3 5.7
2017-Oct-08 15:30N 33°50' W 119°23'3 5.7
2017-Oct-08 14:59N 33°51' W 119°26'7 5.9
2017-Oct-08 13:52N 33°54' W 119°33'8 5.3
2017-Oct-08 12:18N 33°58' W 119°42'0 0.0
2017-Oct-08 12:00N 33°58' W 119°42'0 0.0
2017-Oct-08 11:21N 33°58' W 119°42'0 0.0
2017-Oct-08 10:18N 33°58' W 119°42'0 0.0
2017-Oct-08 09:36N 33°58' W 119°42'0 0.1
2017-Oct-08 09:30N 33°58' W 119°42'0 0.0
2017-Oct-08 09:00N 33°58' W 119°42'0 0.0
2017-Oct-08 08:24N 33°58' W 119°42'0 0.0
2017-Oct-08 08:00N 33°58' W 119°42'0 0.0
2017-Oct-08 07:30N 33°58' W 119°42'0 0.0
2017-Oct-08 07:00N 33°58' W 119°42'0 0.0
2017-Oct-08 05:42N 33°58' W 119°42'0 0.0
2017-Oct-08 02:36N 33°58' W 119°42'0 0.0
2017-Oct-08 02:30N 33°58' W 119°42'9 2.2
2017-Oct-07 22:31N 33°57' W 119°52'0 6.6
2017-Oct-07 22:30N 33°57' W 119°52'3 6.4
2017-Oct-07 22:00N 33°58' W 119°56'6 1.0
2017-Oct-07 15:38N 34°01' W 120°03'0 0.0
2017-Oct-07 15:29N 34°01' W 120°03'0 0.0
2017-Oct-07 13:50N 34°01' W 120°03'0 0.0
2017-Oct-07 11:35N 34°01' W 120°03'0 0.0
2017-Oct-07 11:29N 34°01' W 120°03'0 0.0
2017-Oct-07 04:44N 34°01' W 120°03'0 0.0
2017-Oct-07 04:29N 34°01' W 120°03'0 0.0
2017-Oct-06 23:14N 34°01' W 120°03'0 0.0
2017-Oct-06 22:47N 34°01' W 120°03'0 0.0
2017-Oct-06 22:11N 34°01' W 120°03'0 0.0
2017-Oct-06 21:44N 34°01' W 120°03'0 0.0
2017-Oct-06 21:20N 34°01' W 120°03'1 1.7
2017-Oct-06 20:55N 34°01' W 120°02'3 6.1
2017-Oct-06 20:30N 34°03' W 119°60'4 6.0
2017-Oct-06 19:46N 34°05' W 119°55'2 6.2
2017-Oct-06 19:30N 34°06' W 119°54'3 6.1
2017-Oct-06 19:00N 34°06' W 119°50'5 6.2
2017-Oct-06 18:15N 34°05' W 119°44'2 6.0
2017-Oct-06 17:59N 34°05' W 119°42'3 6.1
2017-Oct-06 17:29N 34°04' W 119°39'3 6.4
2017-Oct-06 16:57N 34°04' W 119°35'3 6.5
2017-Oct-06 16:30N 34°03' W 119°32'1 2.0
2017-Oct-06 15:49N 34°01' W 119°32'0 0.0
2017-Oct-06 15:25N 34°01' W 119°32'0 0.0
2017-Oct-06 13:43N 34°01' W 119°32'0 0.0
2017-Oct-06 13:25N 34°01' W 119°32'0 0.0
2017-Oct-06 12:58N 34°01' W 119°32'0 0.0
2017-Oct-06 12:28N 34°01' W 119°32'0 0.0
2017-Oct-06 11:58N 34°01' W 119°32'0 0.0
2017-Oct-06 11:25N 34°01' W 119°32'0 0.0
2017-Oct-06 10:49N 34°01' W 119°32'0 0.0
2017-Oct-06 08:31N 34°01' W 119°32'0 0.0
2017-Oct-06 08:13N 34°01' W 119°32'0 0.0
2017-Oct-06 07:55N 34°01' W 119°32'0 0.0
2017-Oct-06 07:28N 34°01' W 119°32'0 0.0
2017-Oct-06 06:49N 34°01' W 119°32'1 0.2
2017-Oct-05 23:47N 34°01' W 119°31'1 5.2
2017-Oct-05 23:30N 34°03' W 119°30'  
Track history (hours):
 
Tides and Currents Weather Stations Pressure Air Temp Water Temp Dewpoint Dewpoint Depression Visibility Wind Speed Wind Dir Waves Ship Positions

Mobert

Owner: Anderson, Richard J, Kirkland, WA. More information available from US FCC via Universal Licensing System and Coast Guard Vessel Documentation Center.

Last reported at 2017-Oct-15 23:05 UTC. Time now 2017-Oct-22 17:06 UTC.
Position N 32°47' W 117°19'.

Length 15 m.

Type: Sailing vessel. MMSI: 367632210.

Date/timePositionNaut miles runAvg speedWind from/ knotsBaromVisibWave heightAir tempDewpointWater temp
2017-Oct-15 23:05N 32°47' W 117°19'1 6.6
2017-Oct-15 22:56N 32°48' W 117°20'3 6.7
2017-Oct-15 22:30N 32°49' W 117°23'4 6.7
2017-Oct-15 21:57N 32°51' W 117°27'3 6.6
2017-Oct-15 21:30N 32°53' W 117°29'21 6.4
2017-Oct-15 18:11N 33°05' W 117°50'1 6.6
2017-Oct-15 18:00N 33°06' W 117°52'3 6.4
2017-Oct-15 17:30N 33°07' W 117°55'3 6.4
2017-Oct-15 17:00N 33°09' W 117°58'3 6.5
2017-Oct-15 16:30N 33°11' W 118°01'3 6.4
2017-Oct-15 16:00N 33°13' W 118°04'3 6.3
2017-Oct-15 15:30N 33°14' W 118°08'3 6.2
2017-Oct-15 15:00N 33°16' W 118°11'6 6.3
2017-Oct-15 14:00N 33°20' W 118°17'2 0.4
2017-Oct-15 08:04N 33°21' W 118°20'0 0.0
2017-Oct-15 07:46N 33°21' W 118°20'0 0.0
2017-Oct-15 07:28N 33°21' W 118°20'0 0.0
2017-Oct-15 06:58N 33°21' W 118°20'0 0.0
2017-Oct-15 05:46N 33°21' W 118°20'0 0.0
2017-Oct-15 05:16N 33°21' W 118°20'0 0.0
2017-Oct-15 04:52N 33°21' W 118°20'0 0.0
2017-Oct-15 04:28N 33°21' W 118°20'0 0.0
2017-Oct-15 03:58N 33°21' W 118°20'0 0.0
2017-Oct-15 03:28N 33°21' W 118°20'0 0.0
2017-Oct-15 02:58N 33°21' W 118°20'0 0.0
2017-Oct-15 02:28N 33°21' W 118°20'0 0.0
2017-Oct-15 01:58N 33°21' W 118°20'0 0.0
2017-Oct-15 01:28N 33°21' W 118°20'0 0.0
2017-Oct-15 00:58N 33°21' W 118°20'0 0.0
2017-Oct-14 21:58N 33°21' W 118°20'0 0.0
2017-Oct-14 21:25N 33°21' W 118°20'0 0.0
2017-Oct-14 20:58N 33°21' W 118°20'0 0.0
2017-Oct-14 20:28N 33°21' W 118°20'0 0.0
2017-Oct-14 19:58N 33°21' W 118°20'0 0.0
2017-Oct-14 19:16N 33°21' W 118°20'0 0.0
2017-Oct-14 15:04N 33°21' W 118°20'0 0.0
2017-Oct-14 14:58N 33°21' W 118°20'0 0.0
2017-Oct-14 11:34N 33°21' W 118°20'0 0.0
2017-Oct-14 11:22N 33°21' W 118°20'0 0.0
2017-Oct-14 10:58N 33°21' W 118°20'0 0.0
2017-Oct-14 10:28N 33°21' W 118°20'0 0.0
2017-Oct-14 09:58N 33°21' W 118°20'0 0.0
2017-Oct-14 08:22N 33°21' W 118°20'0 0.0
2017-Oct-14 07:07N 33°21' W 118°20'0 0.0
2017-Oct-14 05:10N 33°21' W 118°20'0 0.0
2017-Oct-14 04:52N 33°21' W 118°20'0 0.0
2017-Oct-14 04:28N 33°21' W 118°20'0 0.0
2017-Oct-14 03:52N 33°21' W 118°20'0 0.0
2017-Oct-14 03:28N 33°21' W 118°20'0 0.0
2017-Oct-13 08:58N 33°21' W 118°20'0 0.0
2017-Oct-12 01:58N 33°21' W 118°20'0 0.0
2017-Oct-12 01:28N 33°21' W 118°20'0 0.0
2017-Oct-11 23:28N 33°21' W 118°20'0 0.0
2017-Oct-11 22:22N 33°21' W 118°20'0 0.0
2017-Oct-11 20:46N 33°21' W 118°20'0 0.0
2017-Oct-10 23:59N 33°21' W 118°20'0 0.0
2017-Oct-10 23:29N 33°21' W 118°20'0 0.0
2017-Oct-10 22:47N 33°21' W 118°20'0 0.0
2017-Oct-10 22:26N 33°21' W 118°20'0 0.0
2017-Oct-10 21:44N 33°21' W 118°20'0 0.0
2017-Oct-10 19:53N 33°21' W 118°20'0 0.0
2017-Oct-10 17:53N 33°21' W 118°20'0 0.0
2017-Oct-10 17:29N 33°21' W 118°20'0 0.0
2017-Oct-10 16:59N 33°21' W 118°20'0 0.0
2017-Oct-10 16:29N 33°21' W 118°20'0 0.0
2017-Oct-10 15:17N 33°21' W 118°20'0 0.0
2017-Oct-10 14:41N 33°21' W 118°20'0 0.0
2017-Oct-10 12:14N 33°21' W 118°20'0 0.0
2017-Oct-10 11:59N 33°21' W 118°20'0 0.0
2017-Oct-10 11:29N 33°21' W 118°20'0 0.0
2017-Oct-10 10:47N 33°21' W 118°20'0 0.0
2017-Oct-10 10:29N 33°21' W 118°20'0 0.0
2017-Oct-10 09:59N 33°21' W 118°20'0 0.0
2017-Oct-10 09:23N 33°21' W 118°20'0 0.0
2017-Oct-10 08:59N 33°21' W 118°20'0 0.0
2017-Oct-10 08:29N 33°21' W 118°20'0 0.0
2017-Oct-10 07:41N 33°21' W 118°20'0 0.0
2017-Oct-10 07:23N 33°21' W 118°20'0 0.0
2017-Oct-10 06:02N 33°21' W 118°20'0 0.0
2017-Oct-10 05:59N 33°21' W 118°20'0 0.0
2017-Oct-10 05:29N 33°21' W 118°20'0 0.0
2017-Oct-10 04:56N 33°21' W 118°20'0 0.0
2017-Oct-10 04:29N 33°21' W 118°20'0 0.0
2017-Oct-10 02:29N 33°21' W 118°20'0 0.0
2017-Oct-10 01:59N 33°21' W 118°20'0 0.0
2017-Oct-10 01:26N 33°21' W 118°20'0 0.0
2017-Oct-10 00:59N 33°21' W 118°20'0 0.0
2017-Oct-10 00:29N 33°21' W 118°20'0 0.0
2017-Oct-09 23:59N 33°21' W 118°20'0 0.0
2017-Oct-09 23:29N 33°21' W 118°20'0 0.0
2017-Oct-09 22:59N 33°21' W 118°20'0 0.0
2017-Oct-09 22:29N 33°21' W 118°20'0 0.0
2017-Oct-09 21:56N 33°21' W 118°20'0 0.0
2017-Oct-09 21:29N 33°21' W 118°20'0 0.0
2017-Oct-09 20:59N 33°21' W 118°20'0 0.0
2017-Oct-09 20:29N 33°21' W 118°20'0 0.0
2017-Oct-09 19:59N 33°21' W 118°20'0 0.0
2017-Oct-09 19:27N 33°21' W 118°20'20 0.9
2017-Oct-08 22:15N 33°31' W 118°40'2 6.2
2017-Oct-08 21:58N 33°32' W 118°41'3 5.7
2017-Oct-08 21:28N 33°34' W 118°44'3 5.9
2017-Oct-08 21:00N 33°35' W 118°47'7 6.4
2017-Oct-08 19:53N 33°38' W 118°54'2 5.8
2017-Oct-08 19:30N 33°40' W 118°57'3 5.6
2017-Oct-08 19:00N 33°41' W 118°60'3 5.2
2017-Oct-08 18:31N 33°42' W 119°03'3 5.8
2017-Oct-08 18:01N 33°43' W 119°06'3 6.6
2017-Oct-08 17:31N 33°44' W 119°09'4 6.5
2017-Oct-08 16:58N 33°46' W 119°13'3 6.3
2017-Oct-08 16:29N 33°47' W 119°17'3 6.0
2017-Oct-08 16:00N 33°49' W 119°20'3 5.7
2017-Oct-08 15:30N 33°50' W 119°23'3 5.7
2017-Oct-08 14:59N 33°51' W 119°26'7 5.9
2017-Oct-08 13:52N 33°54' W 119°33'8 5.3
2017-Oct-08 12:18N 33°58' W 119°42'0 0.0
2017-Oct-08 12:00N 33°58' W 119°42'0 0.0
2017-Oct-08 11:21N 33°58' W 119°42'0 0.0
2017-Oct-08 10:18N 33°58' W 119°42'0 0.0
2017-Oct-08 09:36N 33°58' W 119°42'0 0.1
2017-Oct-08 09:30N 33°58' W 119°42'0 0.0
2017-Oct-08 09:00N 33°58' W 119°42'0 0.0
2017-Oct-08 08:24N 33°58' W 119°42'0 0.0
2017-Oct-08 08:00N 33°58' W 119°42'0 0.0
2017-Oct-08 07:30N 33°58' W 119°42'0 0.0
2017-Oct-08 07:00N 33°58' W 119°42'0 0.0
2017-Oct-08 05:42N 33°58' W 119°42'0 0.0
2017-Oct-08 02:36N 33°58' W 119°42'0 0.0
2017-Oct-08 02:30N 33°58' W 119°42'9 2.2
2017-Oct-07 22:31N 33°57' W 119°52'0 6.6
2017-Oct-07 22:30N 33°57' W 119°52'3 6.4
2017-Oct-07 22:00N 33°58' W 119°56'6 1.0
2017-Oct-07 15:38N 34°01' W 120°03'0 0.0
2017-Oct-07 15:29N 34°01' W 120°03'0 0.0
2017-Oct-07 13:50N 34°01' W 120°03'0 0.0
2017-Oct-07 11:35N 34°01' W 120°03'0 0.0
2017-Oct-07 11:29N 34°01' W 120°03'0 0.0
2017-Oct-07 04:44N 34°01' W 120°03'0 0.0
2017-Oct-07 04:29N 34°01' W 120°03'0 0.0
2017-Oct-06 23:14N 34°01' W 120°03'0 0.0
2017-Oct-06 22:47N 34°01' W 120°03'0 0.0
2017-Oct-06 22:11N 34°01' W 120°03'0 0.0
2017-Oct-06 21:44N 34°01' W 120°03'0 0.0
2017-Oct-06 21:20N 34°01' W 120°03'1 1.7
2017-Oct-06 20:55N 34°01' W 120°02'3 6.1
2017-Oct-06 20:30N 34°03' W 119°60'4 6.0
2017-Oct-06 19:46N 34°05' W 119°55'2 6.2
2017-Oct-06 19:30N 34°06' W 119°54'3 6.1
2017-Oct-06 19:00N 34°06' W 119°50'5 6.2
2017-Oct-06 18:15N 34°05' W 119°44'2 6.0
2017-Oct-06 17:59N 34°05' W 119°42'3 6.1
2017-Oct-06 17:29N 34°04' W 119°39'3 6.4
2017-Oct-06 16:57N 34°04' W 119°35'3 6.5
2017-Oct-06 16:30N 34°03' W 119°32'1 2.0
2017-Oct-06 15:49N 34°01' W 119°32'0 0.0
2017-Oct-06 15:25N 34°01' W 119°32'0 0.0
2017-Oct-06 13:43N 34°01' W 119°32'0 0.0
2017-Oct-06 13:25N 34°01' W 119°32'0 0.0
2017-Oct-06 12:58N 34°01' W 119°32'0 0.0
2017-Oct-06 12:28N 34°01' W 119°32'0 0.0
2017-Oct-06 11:58N 34°01' W 119°32'0 0.0
2017-Oct-06 11:25N 34°01' W 119°32'0 0.0
2017-Oct-06 10:49N 34°01' W 119°32'0 0.0
2017-Oct-06 08:31N 34°01' W 119°32'0 0.0
2017-Oct-06 08:13N 34°01' W 119°32'0 0.0
2017-Oct-06 07:55N 34°01' W 119°32'0 0.0
2017-Oct-06 07:28N 34°01' W 119°32'0 0.0
2017-Oct-06 06:49N 34°01' W 119°32'1 0.2
2017-Oct-05 23:47N 34°01' W 119°31'1 5.2
2017-Oct-05 23:30N 34°03' W 119°30'  

Dump ship's entire track history